sensor_id;sensor_type;location;lat;lon;timestamp;pressure;altitude;pressure_sealevel;temperature;humidity
32131;BME280;18639;50.716;7.086;2023-06-26T00:00:05;100065.38;;;20.38;85.10
32131;BME280;18639;50.716;7.086;2023-06-26T00:03:08;100068.00;;;20.38;85.67
32131;BME280;18639;50.716;7.086;2023-06-26T00:05:34;100149.88;;;20.89;86.67
32131;BME280;18639;50.716;7.086;2023-06-26T00:08:00;100153.78;;;21.01;86.91
32131;BME280;18639;50.716;7.086;2023-06-26T00:10:28;100122.53;;;20.83;86.65
32131;BME280;18639;50.716;7.086;2023-06-26T00:12:54;100170.84;;;21.05;87.66
32131;BME280;18639;50.716;7.086;2023-06-26T00:15:19;100098.75;;;20.69;89.19
32131;BME280;18639;50.716;7.086;2023-06-26T00:17:45;100131.91;;;20.78;91.49
32131;BME280;18639;50.716;7.086;2023-06-26T00:20:10;100159.03;;;21.01;91.77
32131;BME280;18639;50.716;7.086;2023-06-26T00:22:36;100135.81;;;20.82;90.65
32131;BME280;18639;50.716;7.086;2023-06-26T00:25:06;100118.78;;;20.70;89.56
32131;BME280;18639;50.716;7.086;2023-06-26T00:27:32;100146.16;;;20.83;88.81
32131;BME280;18639;50.716;7.086;2023-06-26T00:29:58;100138.94;;;20.77;88.33
32131;BME280;18639;50.716;7.086;2023-06-26T00:32:23;100130.25;;;20.77;90.03
32131;BME280;18639;50.716;7.086;2023-06-26T00:34:48;100153.34;;;20.89;90.38
32131;BME280;18639;50.716;7.086;2023-06-26T00:37:14;100105.84;;;20.60;91.19
32131;BME280;18639;50.716;7.086;2023-06-26T00:39:39;100049.00;;;20.20;92.75
32131;BME280;18639;50.716;7.086;2023-06-26T00:42:07;100047.03;;;20.22;93.15
32131;BME280;18639;50.716;7.086;2023-06-26T00:44:33;100078.50;;;20.38;93.14
32131;BME280;18639;50.716;7.086;2023-06-26T00:46:59;100084.91;;;20.36;94.20
32131;BME280;18639;50.716;7.086;2023-06-26T00:49:26;100086.38;;;20.38;93.04
32131;BME280;18639;50.716;7.086;2023-06-26T00:51:51;100073.09;;;20.32;92.06
32131;BME280;18639;50.716;7.086;2023-06-26T00:54:20;100147.97;;;20.75;92.67
32131;BME280;18639;50.716;7.086;2023-06-26T00:56:47;100106.22;;;20.49;92.84
32131;BME280;18639;50.716;7.086;2023-06-26T00:59:29;100050.66;;;20.13;90.73
32131;BME280;18639;50.716;7.086;2023-06-26T01:02:10;100073.28;;;20.22;88.18
32131;BME280;18639;50.716;7.086;2023-06-26T01:04:48;100084.22;;;20.42;87.49
32131;BME280;18639;50.716;7.086;2023-06-26T01:07:15;100104.06;;;20.52;87.94
32131;BME280;18639;50.716;7.086;2023-06-26T01:09:41;100105.03;;;20.51;86.90
32131;BME280;18639;50.716;7.086;2023-06-26T01:12:07;100022.63;;;20.13;85.67
32131;BME280;18639;50.716;7.086;2023-06-26T01:14:39;100135.16;;;20.80;85.12
32131;BME280;18639;50.716;7.086;2023-06-26T01:17:04;100075.53;;;20.49;84.13
32131;BME280;18639;50.716;7.086;2023-06-26T01:19:31;100064.06;;;20.42;83.42
32131;BME280;18639;50.716;7.086;2023-06-26T01:25:06;100093.19;;;20.64;83.22
32131;BME280;18639;50.716;7.086;2023-06-26T01:27:37;100113.66;;;20.76;82.62
32131;BME280;18639;50.716;7.086;2023-06-26T01:30:03;100092.88;;;20.67;82.30
32131;BME280;18639;50.716;7.086;2023-06-26T01:32:31;100016.81;;;20.26;82.32
32131;BME280;18639;50.716;7.086;2023-06-26T01:34:57;100089.59;;;20.65;82.87
32131;BME280;18639;50.716;7.086;2023-06-26T01:37:23;100012.91;;;20.22;83.29
32131;BME280;18639;50.716;7.086;2023-06-26T01:39:48;100057.78;;;20.51;83.43
32131;BME280;18639;50.716;7.086;2023-06-26T01:42:48;100111.81;;;20.85;83.68
32131;BME280;18639;50.716;7.086;2023-06-26T01:45:42;100053.72;;;20.41;83.00
32131;BME280;18639;50.716;7.086;2023-06-26T01:51:58;100113.28;;;20.87;80.91
32131;BME280;18639;50.716;7.086;2023-06-26T01:54:35;100113.09;;;20.89;81.19
32131;BME280;18639;50.716;7.086;2023-06-26T01:57:04;100049.59;;;20.46;81.25
32131;BME280;18639;50.716;7.086;2023-06-26T01:59:31;100020.78;;;20.22;82.52
32131;BME280;18639;50.716;7.086;2023-06-26T02:01:57;100120.53;;;20.85;83.90
32131;BME280;18639;50.716;7.086;2023-06-26T02:04:25;99995.38;;;20.14;84.91
32131;BME280;18639;50.716;7.086;2023-06-26T02:06:53;100111.50;;;20.80;85.76
32131;BME280;18639;50.716;7.086;2023-06-26T02:09:20;99988.69;;;20.04;86.80
32131;BME280;18639;50.716;7.086;2023-06-26T02:11:45;100018.22;;;20.06;87.67
32131;BME280;18639;50.716;7.086;2023-06-26T02:14:11;100125.00;;;20.69;88.71
32131;BME280;18639;50.716;7.086;2023-06-26T02:16:37;100106.31;;;20.64;88.97
32131;BME280;18639;50.716;7.086;2023-06-26T02:19:03;100057.53;;;20.22;88.67
32131;BME280;18639;50.716;7.086;2023-06-26T02:21:28;100096.38;;;20.43;88.78
32131;BME280;18639;50.716;7.086;2023-06-26T02:23:53;100048.69;;;20.15;88.44
32131;BME280;18639;50.716;7.086;2023-06-26T02:26:19;100097.72;;;20.39;87.95
32131;BME280;18639;50.716;7.086;2023-06-26T02:28:44;100105.38;;;20.48;87.43
32131;BME280;18639;50.716;7.086;2023-06-26T02:31:10;100080.78;;;20.25;87.95
32131;BME280;18639;50.716;7.086;2023-06-26T02:33:38;100126.91;;;20.44;88.41
32131;BME280;18639;50.716;7.086;2023-06-26T02:36:04;100100.50;;;20.29;89.71
32131;BME280;18639;50.716;7.086;2023-06-26T02:38:30;100137.91;;;20.39;90.98
32131;BME280;18639;50.716;7.086;2023-06-26T02:40:57;100136.41;;;20.37;91.21
32131;BME280;18639;50.716;7.086;2023-06-26T02:43:23;100071.03;;;19.87;91.51
32131;BME280;18639;50.716;7.086;2023-06-26T02:45:48;100118.06;;;20.04;93.64
32131;BME280;18639;50.716;7.086;2023-06-26T02:48:14;100117.41;;;19.94;92.89
32131;BME280;18639;50.716;7.086;2023-06-26T02:53:57;100038.22;;;19.42;92.54
32131;BME280;18639;50.716;7.086;2023-06-26T02:56:29;100052.03;;;19.52;92.69
32131;BME280;18639;50.716;7.086;2023-06-26T02:59:05;100046.25;;;19.41;93.39
32131;BME280;18639;50.716;7.086;2023-06-26T03:01:33;100097.72;;;19.66;94.04
32131;BME280;18639;50.716;7.086;2023-06-26T03:03:58;100150.19;;;19.98;94.30
32131;BME280;18639;50.716;7.086;2023-06-26T03:06:25;100051.31;;;19.26;94.50
32131;BME280;18639;50.716;7.086;2023-06-26T03:08:51;100105.28;;;19.61;95.00
32131;BME280;18639;50.716;7.086;2023-06-26T03:11:16;100085.41;;;19.42;95.03
32131;BME280;18639;50.716;7.086;2023-06-26T03:13:42;100063.13;;;19.22;94.73
32131;BME280;18639;50.716;7.086;2023-06-26T03:16:07;100116.59;;;19.53;94.87
32131;BME280;18639;50.716;7.086;2023-06-26T03:18:33;100117.91;;;19.49;94.21
32131;BME280;18639;50.716;7.086;2023-06-26T03:20:58;100116.56;;;19.45;94.29
32131;BME280;18639;50.716;7.086;2023-06-26T03:23:24;100116.25;;;19.48;94.38
32131;BME280;18639;50.716;7.086;2023-06-26T03:25:52;100149.69;;;19.62;95.55
32131;BME280;18639;50.716;7.086;2023-06-26T03:28:18;100147.06;;;19.62;96.14
32131;BME280;18639;50.716;7.086;2023-06-26T03:30:44;100207.25;;;19.88;96.39
32131;BME280;18639;50.716;7.086;2023-06-26T03:33:12;100139.16;;;19.46;96.40
32131;BME280;18639;50.716;7.086;2023-06-26T03:35:37;100142.78;;;19.61;96.26
32131;BME280;18639;50.716;7.086;2023-06-26T03:38:04;100161.81;;;19.63;95.94
32131;BME280;18639;50.716;7.086;2023-06-26T03:40:32;100165.25;;;19.72;96.02
32131;BME280;18639;50.716;7.086;2023-06-26T03:43:00;100122.44;;;19.39;96.45
32131;BME280;18639;50.716;7.086;2023-06-26T03:45:29;100146.91;;;19.64;96.87
32131;BME280;18639;50.716;7.086;2023-06-26T03:48:02;100173.47;;;19.69;96.63
32131;BME280;18639;50.716;7.086;2023-06-26T03:50:27;100111.28;;;19.37;95.82
32131;BME280;18639;50.716;7.086;2023-06-26T03:52:53;100179.53;;;19.77;96.25
32131;BME280;18639;50.716;7.086;2023-06-26T03:55:19;100161.34;;;19.76;96.90
32131;BME280;18639;50.716;7.086;2023-06-26T03:57:46;100148.03;;;19.61;97.15
32131;BME280;18639;50.716;7.086;2023-06-26T04:00:12;100204.47;;;20.06;97.85
32131;BME280;18639;50.716;7.086;2023-06-26T04:02:38;100219.25;;;20.07;100.00
32131;BME280;18639;50.716;7.086;2023-06-26T04:05:04;100197.09;;;19.93;100.00
32131;BME280;18639;50.716;7.086;2023-06-26T04:07:30;100142.66;;;19.55;100.00
32131;BME280;18639;50.716;7.086;2023-06-26T04:09:56;100233.34;;;20.06;100.00
32131;BME280;18639;50.716;7.086;2023-06-26T04:15:42;100207.78;;;20.08;100.00
32131;BME280;18639;50.716;7.086;2023-06-26T04:18:08;100134.13;;;19.53;100.00
32131;BME280;18639;50.716;7.086;2023-06-26T04:20:39;100126.41;;;19.51;100.00
32131;BME280;18639;50.716;7.086;2023-06-26T04:23:06;100223.00;;;20.21;100.00
32131;BME280;18639;50.716;7.086;2023-06-26T04:25:31;100232.03;;;20.26;100.00
32131;BME280;18639;50.716;7.086;2023-06-26T04:27:57;100221.53;;;20.26;100.00
32131;BME280;18639;50.716;7.086;2023-06-26T04:30:22;100208.09;;;20.13;100.00
32131;BME280;18639;50.716;7.086;2023-06-26T04:32:48;100170.03;;;19.93;100.00
32131;BME280;18639;50.716;7.086;2023-06-26T04:35:16;100170.38;;;19.98;100.00
32131;BME280;18639;50.716;7.086;2023-06-26T04:37:41;100176.94;;;20.02;100.00
32131;BME280;18639;50.716;7.086;2023-06-26T04:40:07;100194.16;;;20.21;100.00
32131;BME280;18639;50.716;7.086;2023-06-26T04:42:34;100193.84;;;20.24;100.00
32131;BME280;18639;50.716;7.086;2023-06-26T04:45:00;100184.78;;;20.10;100.00
32131;BME280;18639;50.716;7.086;2023-06-26T04:47:27;100146.28;;;19.94;100.00
32131;BME280;18639;50.716;7.086;2023-06-26T04:49:53;100179.25;;;20.13;100.00
32131;BME280;18639;50.716;7.086;2023-06-26T04:52:18;100248.94;;;20.64;100.00
32131;BME280;18639;50.716;7.086;2023-06-26T04:54:44;100224.34;;;20.49;100.00
32131;BME280;18639;50.716;7.086;2023-06-26T04:57:09;100206.97;;;20.40;100.00
32131;BME280;18639;50.716;7.086;2023-06-26T04:59:36;100174.13;;;20.28;100.00
32131;BME280;18639;50.716;7.086;2023-06-26T05:02:02;100259.28;;;20.82;100.00
32131;BME280;18639;50.716;7.086;2023-06-26T05:04:28;100206.81;;;20.49;100.00
32131;BME280;18639;50.716;7.086;2023-06-26T05:06:53;100234.16;;;20.79;100.00
32131;BME280;18639;50.716;7.086;2023-06-26T05:09:18;100227.75;;;20.74;100.00
32131;BME280;18639;50.716;7.086;2023-06-26T05:11:44;100231.38;;;20.81;100.00
32131;BME280;18639;50.716;7.086;2023-06-26T05:14:09;100257.25;;;21.00;100.00
32131;BME280;18639;50.716;7.086;2023-06-26T05:16:36;100215.78;;;20.71;100.00
32131;BME280;18639;50.716;7.086;2023-06-26T05:19:02;100277.75;;;21.13;100.00
32131;BME280;18639;50.716;7.086;2023-06-26T05:21:27;100254.00;;;20.98;100.00
32131;BME280;18639;50.716;7.086;2023-06-26T05:24:02;100261.88;;;21.14;100.00
32131;BME280;18639;50.716;7.086;2023-06-26T05:26:30;100265.13;;;21.24;98.48
32131;BME280;18639;50.716;7.086;2023-06-26T05:32:48;100262.06;;;21.43;91.20
32131;BME280;18639;50.716;7.086;2023-06-26T05:35:15;100234.84;;;21.28;88.07
32131;BME280;18639;50.716;7.086;2023-06-26T05:37:41;100256.78;;;21.52;89.83
32131;BME280;18639;50.716;7.086;2023-06-26T05:40:07;100269.97;;;21.74;88.08
32131;BME280;18639;50.716;7.086;2023-06-26T05:42:36;100265.13;;;21.86;85.44
32131;BME280;18639;50.716;7.086;2023-06-26T05:45:02;100265.63;;;21.90;85.74
32131;BME280;18639;50.716;7.086;2023-06-26T05:47:27;100252.97;;;21.85;82.91
32131;BME280;18639;50.716;7.086;2023-06-26T05:49:52;100250.34;;;21.85;84.47
32131;BME280;18639;50.716;7.086;2023-06-26T05:52:18;100269.63;;;22.08;84.16
32131;BME280;18639;50.716;7.086;2023-06-26T05:54:44;100233.22;;;21.89;82.98
32131;BME280;18639;50.716;7.086;2023-06-26T05:57:09;100273.91;;;22.09;83.95
32131;BME280;18639;50.716;7.086;2023-06-26T05:59:36;100278.53;;;22.07;84.33
32131;BME280;18639;50.716;7.086;2023-06-26T06:02:04;100265.59;;;21.98;84.62
32131;BME280;18639;50.716;7.086;2023-06-26T06:04:30;100272.16;;;22.02;82.38
32131;BME280;18639;50.716;7.086;2023-06-26T06:06:55;100252.59;;;21.96;84.35
32131;BME280;18639;50.716;7.086;2023-06-26T06:09:20;100236.84;;;21.88;84.94
32131;BME280;18639;50.716;7.086;2023-06-26T06:11:45;100287.66;;;22.19;86.26
32131;BME280;18639;50.716;7.086;2023-06-26T06:14:11;100304.56;;;22.25;86.66
32131;BME280;18639;50.716;7.086;2023-06-26T06:16:36;100274.97;;;22.23;84.12
32131;BME280;18639;50.716;7.086;2023-06-26T06:19:02;100283.84;;;22.45;81.95
32131;BME280;18639;50.716;7.086;2023-06-26T06:21:28;100307.41;;;22.61;82.62
32131;BME280;18639;50.716;7.086;2023-06-26T06:23:53;100292.59;;;22.60;82.60
32131;BME280;18639;50.716;7.086;2023-06-26T06:26:19;100312.94;;;22.74;81.81
32131;BME280;18639;50.716;7.086;2023-06-26T06:28:44;100313.44;;;22.92;82.94
32131;BME280;18639;50.716;7.086;2023-06-26T06:31:10;100275.53;;;22.71;83.11
32131;BME280;18639;50.716;7.086;2023-06-26T06:33:35;100331.25;;;22.90;82.60
32131;BME280;18639;50.716;7.086;2023-06-26T06:36:00;100272.69;;;22.43;84.11
32131;BME280;18639;50.716;7.086;2023-06-26T06:38:25;100250.81;;;22.19;83.98
32131;BME280;18639;50.716;7.086;2023-06-26T06:40:51;100327.09;;;22.50;85.00
32131;BME280;18639;50.716;7.086;2023-06-26T06:43:16;100338.88;;;22.40;88.96
32131;BME280;18639;50.716;7.086;2023-06-26T06:45:41;100322.19;;;22.24;88.74
32131;BME280;18639;50.716;7.086;2023-06-26T06:48:06;100345.72;;;22.49;86.99
32131;BME280;18639;50.716;7.086;2023-06-26T06:50:32;100310.66;;;22.25;87.85
32131;BME280;18639;50.716;7.086;2023-06-26T06:52:57;100310.13;;;22.53;87.09
32131;BME280;18639;50.716;7.086;2023-06-26T06:55:25;100335.41;;;22.62;90.18
32131;BME280;18639;50.716;7.086;2023-06-26T06:57:51;100341.38;;;22.56;88.40
32131;BME280;18639;50.716;7.086;2023-06-26T07:00:17;100341.03;;;22.36;90.55
32131;BME280;18639;50.716;7.086;2023-06-26T07:02:44;100340.34;;;22.42;89.99
32131;BME280;18639;50.716;7.086;2023-06-26T07:05:09;100333.75;;;22.61;89.87
32131;BME280;18639;50.716;7.086;2023-06-26T07:07:36;100335.28;;;23.01;87.12
32131;BME280;18639;50.716;7.086;2023-06-26T07:10:10;100329.00;;;23.17;87.75
32131;BME280;18639;50.716;7.086;2023-06-26T07:12:36;100333.91;;;23.20;85.82
32131;BME280;18639;50.716;7.086;2023-06-26T07:15:03;100357.09;;;23.09;83.50
32131;BME280;18639;50.716;7.086;2023-06-26T07:17:30;100349.13;;;22.80;84.44
32131;BME280;18639;50.716;7.086;2023-06-26T07:19:55;100356.38;;;22.78;85.71
32131;BME280;18639;50.716;7.086;2023-06-26T07:22:21;100351.81;;;22.72;87.51
32131;BME280;18639;50.716;7.086;2023-06-26T07:24:47;100358.59;;;22.89;89.57
32131;BME280;18639;50.716;7.086;2023-06-26T07:27:14;100328.06;;;22.80;87.49
32131;BME280;18639;50.716;7.086;2023-06-26T07:29:39;100371.66;;;23.20;85.89
32131;BME280;18639;50.716;7.086;2023-06-26T07:32:05;100352.38;;;23.20;85.24
32131;BME280;18639;50.716;7.086;2023-06-26T07:34:30;100365.91;;;23.54;84.15
32131;BME280;18639;50.716;7.086;2023-06-26T07:36:55;100350.78;;;23.48;82.26
32131;BME280;18639;50.716;7.086;2023-06-26T07:39:20;100393.81;;;23.92;78.86
32131;BME280;18639;50.716;7.086;2023-06-26T07:41:46;100383.59;;;24.04;81.93
32131;BME280;18639;50.716;7.086;2023-06-26T07:44:11;100366.94;;;24.04;79.98
32131;BME280;18639;50.716;7.086;2023-06-26T07:46:36;100376.00;;;24.16;80.45
32131;BME280;18639;50.716;7.086;2023-06-26T07:49:02;100397.50;;;24.27;80.47
32131;BME280;18639;50.716;7.086;2023-06-26T07:51:27;100370.41;;;24.19;81.83
32131;BME280;18639;50.716;7.086;2023-06-26T07:53:52;100398.59;;;24.33;81.51
32131;BME280;18639;50.716;7.086;2023-06-26T07:56:18;100363.47;;;24.18;78.77
32131;BME280;18639;50.716;7.086;2023-06-26T07:58:43;100399.75;;;24.45;77.25
32131;BME280;18639;50.716;7.086;2023-06-26T08:01:08;100375.06;;;24.38;80.10
32131;BME280;18639;50.716;7.086;2023-06-26T08:03:33;100391.34;;;24.42;79.32
32131;BME280;18639;50.716;7.086;2023-06-26T08:05:59;100390.41;;;24.49;79.13
32131;BME280;18639;50.716;7.086;2023-06-26T08:08:24;100375.75;;;24.47;79.01
32131;BME280;18639;50.716;7.086;2023-06-26T08:10:49;100392.06;;;24.50;79.24
32131;BME280;18639;50.716;7.086;2023-06-26T08:13:14;100350.34;;;24.24;80.05
32131;BME280;18639;50.716;7.086;2023-06-26T08:15:40;100376.56;;;24.47;79.37
32131;BME280;18639;50.716;7.086;2023-06-26T08:18:05;100385.13;;;24.49;74.97
32131;BME280;18639;50.716;7.086;2023-06-26T08:20:30;100406.22;;;24.85;75.85
32131;BME280;18639;50.716;7.086;2023-06-26T08:22:56;100404.22;;;24.87;75.33
32131;BME280;18639;50.716;7.086;2023-06-26T08:25:21;100412.47;;;24.99;78.21
32131;BME280;18639;50.716;7.086;2023-06-26T08:27:46;100411.97;;;25.10;75.07
32131;BME280;18639;50.716;7.086;2023-06-26T08:30:12;100374.44;;;24.79;70.19
32131;BME280;18639;50.716;7.086;2023-06-26T08:32:38;100336.88;;;24.62;72.23
32131;BME280;18639;50.716;7.086;2023-06-26T08:35:05;100411.25;;;25.01;75.46
32131;BME280;18639;50.716;7.086;2023-06-26T08:37:30;100422.34;;;25.11;72.70
32131;BME280;18639;50.716;7.086;2023-06-26T08:40:00;100414.94;;;25.28;72.29
32131;BME280;18639;50.716;7.086;2023-06-26T08:42:26;100426.41;;;25.35;73.31
32131;BME280;18639;50.716;7.086;2023-06-26T08:44:51;100389.00;;;25.17;72.90
32131;BME280;18639;50.716;7.086;2023-06-26T08:47:18;100431.00;;;25.54;69.81
32131;BME280;18639;50.716;7.086;2023-06-26T08:52:36;100399.28;;;25.33;68.82
32131;BME280;18639;50.716;7.086;2023-06-26T08:55:02;100431.72;;;25.63;64.97
32131;BME280;18639;50.716;7.086;2023-06-26T08:57:32;100445.75;;;25.36;67.80
32131;BME280;18639;50.716;7.086;2023-06-26T08:59:57;100454.38;;;25.23;69.15
32131;BME280;18639;50.716;7.086;2023-06-26T09:02:23;100419.03;;;25.03;69.27
32131;BME280;18639;50.716;7.086;2023-06-26T09:04:50;100450.31;;;24.99;70.10
32131;BME280;18639;50.716;7.086;2023-06-26T09:07:16;100442.69;;;24.90;67.21
32131;BME280;18639;50.716;7.086;2023-06-26T09:09:41;100427.19;;;24.87;69.34
32131;BME280;18639;50.716;7.086;2023-06-26T09:12:08;100444.44;;;24.83;68.55
32131;BME280;18639;50.716;7.086;2023-06-26T09:14:34;100409.31;;;24.31;69.79
32131;BME280;18639;50.716;7.086;2023-06-26T09:16:59;100444.53;;;24.53;70.08
32131;BME280;18639;50.716;7.086;2023-06-26T09:19:24;100429.06;;;24.71;72.11
32131;BME280;18639;50.716;7.086;2023-06-26T09:21:50;100442.69;;;25.11;68.91
32131;BME280;18639;50.716;7.086;2023-06-26T09:24:19;100442.72;;;25.17;67.57
32131;BME280;18639;50.716;7.086;2023-06-26T09:26:46;100442.72;;;25.17;68.06
32131;BME280;18639;50.716;7.086;2023-06-26T09:29:13;100451.44;;;25.11;65.58
32131;BME280;18639;50.716;7.086;2023-06-26T09:31:39;100447.66;;;25.21;62.00
32131;BME280;18639;50.716;7.086;2023-06-26T09:34:05;100433.94;;;25.38;65.29
32131;BME280;18639;50.716;7.086;2023-06-26T09:36:31;100418.44;;;25.56;63.11
32131;BME280;18639;50.716;7.086;2023-06-26T09:39:01;100451.44;;;25.61;62.60
32131;BME280;18639;50.716;7.086;2023-06-26T09:41:26;100433.81;;;25.46;63.88
32131;BME280;18639;50.716;7.086;2023-06-26T09:43:52;100388.28;;;25.30;65.96
32131;BME280;18639;50.716;7.086;2023-06-26T09:46:27;100449.81;;;25.94;65.79
32131;BME280;18639;50.716;7.086;2023-06-26T09:49:10;100453.72;;;25.70;62.74
32131;BME280;18639;50.716;7.086;2023-06-26T09:51:36;100426.59;;;25.62;58.06
32131;BME280;18639;50.716;7.086;2023-06-26T09:54:04;100453.78;;;25.77;60.01
32131;BME280;18639;50.716;7.086;2023-06-26T09:56:30;100455.31;;;25.65;62.44
32131;BME280;18639;50.716;7.086;2023-06-26T09:58:57;100409.41;;;25.23;62.70
32131;BME280;18639;50.716;7.086;2023-06-26T10:01:23;100459.06;;;25.77;64.54
32131;BME280;18639;50.716;7.086;2023-06-26T10:03:49;100455.66;;;25.83;57.82
32131;BME280;18639;50.716;7.086;2023-06-26T10:06:19;100462.69;;;26.04;61.69
32131;BME280;18639;50.716;7.086;2023-06-26T10:08:45;100443.53;;;26.02;55.67
32131;BME280;18639;50.716;7.086;2023-06-26T10:11:16;100466.16;;;26.04;56.36
32131;BME280;18639;50.716;7.086;2023-06-26T10:13:45;100475.09;;;26.03;59.39
32131;BME280;18639;50.716;7.086;2023-06-26T10:16:13;100471.13;;;26.20;57.90
32131;BME280;18639;50.716;7.086;2023-06-26T10:18:40;100477.19;;;26.14;55.20
32131;BME280;18639;50.716;7.086;2023-06-26T10:21:06;100443.84;;;25.85;55.15
32131;BME280;18639;50.716;7.086;2023-06-26T10:23:34;100483.28;;;26.02;56.93
32131;BME280;18639;50.716;7.086;2023-06-26T10:26:01;100478.94;;;25.94;57.13
32131;BME280;18639;50.716;7.086;2023-06-26T10:28:28;100478.19;;;26.48;57.21
32131;BME280;18639;50.716;7.086;2023-06-26T10:30:56;100425.16;;;26.48;54.24
32131;BME280;18639;50.716;7.086;2023-06-26T10:33:22;100442.34;;;26.65;54.35
32131;BME280;18639;50.716;7.086;2023-06-26T10:35:48;100476.28;;;27.09;51.04
32131;BME280;18639;50.716;7.086;2023-06-26T10:38:14;100443.66;;;27.28;55.69
32131;BME280;18639;50.716;7.086;2023-06-26T10:40:47;100455.66;;;27.83;51.42
32131;BME280;18639;50.716;7.086;2023-06-26T10:43:17;100472.91;;;28.25;47.85
32131;BME280;18639;50.716;7.086;2023-06-26T10:45:45;100495.47;;;27.96;49.04
32131;BME280;18639;50.716;7.086;2023-06-26T10:48:14;100447.72;;;27.44;46.70
32131;BME280;18639;50.716;7.086;2023-06-26T10:50:39;100454.25;;;26.95;47.86
32131;BME280;18639;50.716;7.086;2023-06-26T10:56:01;100503.22;;;26.99;47.92
32131;BME280;18639;50.716;7.086;2023-06-26T10:58:40;100497.25;;;26.84;46.80
32131;BME280;18639;50.716;7.086;2023-06-26T11:03:37;100482.25;;;26.50;48.15
32131;BME280;18639;50.716;7.086;2023-06-26T11:06:10;100503.19;;;26.25;48.23
32131;BME280;18639;50.716;7.086;2023-06-26T11:08:49;100485.50;;;26.05;49.16
32131;BME280;18639;50.716;7.086;2023-06-26T11:11:15;100495.16;;;26.19;49.52
32131;BME280;18639;50.716;7.086;2023-06-26T11:13:41;100502.28;;;26.18;51.05
32131;BME280;18639;50.716;7.086;2023-06-26T11:16:07;100477.16;;;26.08;51.28
32131;BME280;18639;50.716;7.086;2023-06-26T11:18:32;100499.81;;;26.10;49.63
32131;BME280;18639;50.716;7.086;2023-06-26T11:21:24;100494.09;;;26.07;50.16
32131;BME280;18639;50.716;7.086;2023-06-26T11:23:50;100495.47;;;25.96;48.57
32131;BME280;18639;50.716;7.086;2023-06-26T11:26:20;100509.72;;;25.95;50.42
32131;BME280;18639;50.716;7.086;2023-06-26T11:28:56;100517.72;;;25.74;49.65
32131;BME280;18639;50.716;7.086;2023-06-26T11:31:25;100519.59;;;25.80;47.38
32131;BME280;18639;50.716;7.086;2023-06-26T11:33:52;100482.50;;;25.52;49.42
32131;BME280;18639;50.716;7.086;2023-06-26T11:36:17;100520.38;;;25.52;49.21
32131;BME280;18639;50.716;7.086;2023-06-26T11:38:43;100529.34;;;25.51;50.44
32131;BME280;18639;50.716;7.086;2023-06-26T11:41:08;100516.88;;;25.24;49.76
32131;BME280;18639;50.716;7.086;2023-06-26T11:43:34;100504.84;;;25.00;50.59
32131;BME280;18639;50.716;7.086;2023-06-26T11:45:59;100525.88;;;25.30;51.26
32131;BME280;18639;50.716;7.086;2023-06-26T11:48:25;100508.31;;;25.22;50.15
32131;BME280;18639;50.716;7.086;2023-06-26T11:50:51;100516.06;;;25.24;50.52
32131;BME280;18639;50.716;7.086;2023-06-26T11:53:19;100494.28;;;24.86;50.70
32131;BME280;18639;50.716;7.086;2023-06-26T11:55:44;100513.47;;;24.88;50.77
32131;BME280;18639;50.716;7.086;2023-06-26T11:58:10;100478.91;;;24.74;51.54
32131;BME280;18639;50.716;7.086;2023-06-26T12:00:35;100531.84;;;25.17;51.41
32131;BME280;18639;50.716;7.086;2023-06-26T12:03:06;100531.34;;;25.07;51.30
32131;BME280;18639;50.716;7.086;2023-06-26T12:05:31;100526.63;;;25.02;49.51
32131;BME280;18639;50.716;7.086;2023-06-26T12:07:57;100543.75;;;25.06;50.16
32131;BME280;18639;50.716;7.086;2023-06-26T12:10:24;100542.00;;;25.13;50.42
32131;BME280;18639;50.716;7.086;2023-06-26T12:12:50;100526.78;;;24.94;50.09
32131;BME280;18639;50.716;7.086;2023-06-26T12:15:16;100544.22;;;24.89;51.61
32131;BME280;18639;50.716;7.086;2023-06-26T12:17:42;100527.50;;;24.73;50.11
32131;BME280;18639;50.716;7.086;2023-06-26T12:20:21;100546.63;;;24.90;51.51
32131;BME280;18639;50.716;7.086;2023-06-26T12:22:48;100544.53;;;24.86;48.71
32131;BME280;18639;50.716;7.086;2023-06-26T12:25:14;100537.72;;;24.91;49.60
32131;BME280;18639;50.716;7.086;2023-06-26T12:27:40;100549.94;;;24.92;49.54
32131;BME280;18639;50.716;7.086;2023-06-26T12:30:05;100525.41;;;24.84;48.56
32131;BME280;18639;50.716;7.086;2023-06-26T12:32:31;100521.41;;;24.88;47.05
32131;BME280;18639;50.716;7.086;2023-06-26T12:34:57;100556.41;;;25.11;44.38
32131;BME280;18639;50.716;7.086;2023-06-26T12:37:23;100517.63;;;24.97;45.08
32131;BME280;18639;50.716;7.086;2023-06-26T12:39:51;100546.47;;;25.13;44.73
32131;BME280;18639;50.716;7.086;2023-06-26T12:42:25;100525.81;;;25.02;46.43
32131;BME280;18639;50.716;7.086;2023-06-26T12:44:51;100535.13;;;24.98;46.08
32131;BME280;18639;50.716;7.086;2023-06-26T12:47:19;100528.28;;;25.03;46.83
32131;BME280;18639;50.716;7.086;2023-06-26T12:49:51;100557.31;;;25.39;46.13
32131;BME280;18639;50.716;7.086;2023-06-26T12:52:17;100569.28;;;25.35;44.85
32131;BME280;18639;50.716;7.086;2023-06-26T12:54:44;100539.88;;;25.02;45.40
32131;BME280;18639;50.716;7.086;2023-06-26T12:57:14;100487.22;;;24.71;46.46
32131;BME280;18639;50.716;7.086;2023-06-26T12:59:40;100562.44;;;25.20;45.26
32131;BME280;18639;50.716;7.086;2023-06-26T13:02:05;100578.63;;;25.10;45.39
32131;BME280;18639;50.716;7.086;2023-06-26T13:04:31;100569.78;;;25.03;45.99
32131;BME280;18639;50.716;7.086;2023-06-26T13:06:57;100570.47;;;25.11;47.27
32131;BME280;18639;50.716;7.086;2023-06-26T13:09:23;100565.25;;;25.18;43.90
32131;BME280;18639;50.716;7.086;2023-06-26T13:11:53;100560.03;;;25.25;45.60